Time;durP1;ratioP1;P1;durP2;ratioP2;P2;SDS_P1;SDS_P2;PMS_P1;PMS_P2;Temp;Humidity;BMP_temperature;BMP_pressure;BME280_temperature;BME280_humidity;BME280_pressure;Samples;Min_cycle;Max_cycle;Signal;HPM_P1;HPM_P2
2022/07/20 00:00:11;;;;;;;6.87;4.75;;;;;;;18.49;71.59;99593.12;1667500;82;20942;-74
2022/07/20 00:02:38;;;;;;;8.05;4.67;;;;;;;18.46;71.58;99593.52;1669489;84;20964;-74
2022/07/20 00:05:05;;;;;;;6.08;4.42;;;;;;;18.42;71.62;99588.80;1682955;84;21084;-76
2022/07/20 00:07:33;;;;;;;7.58;3.98;;;;;;;18.36;71.66;99586.97;1665783;84;20980;-75
2022/07/20 00:12:44;;;;;;;4.80;4.00;;;;;;;18.27;71.86;99583.73;1664959;84;21039;-74
2022/07/20 00:15:11;;;;;;;8.33;4.37;;;;;;;18.21;72.04;99576.52;1672391;84;21509;-73
2022/07/20 00:17:37;;;;;;;4.55;4.12;;;;;;;18.17;72.27;99571.23;1672512;84;21237;-75
2022/07/20 00:20:06;;;;;;;9.55;4.45;;;;;;;18.15;72.30;99576.53;1665374;84;20988;-74
2022/07/20 00:22:32;;;;;;;5.28;4.35;;;;;;;18.12;72.41;99583.18;1663304;84;20985;-75
2022/07/20 00:24:59;;;;;;;7.45;4.60;;;;;;;18.07;72.50;99569.55;1663793;84;21444;-75
2022/07/20 00:27:25;;;;;;;5.55;4.62;;;;;;;18.06;72.69;99575.16;1664640;84;21033;-76
2022/07/20 00:29:52;;;;;;;5.03;4.03;;;;;;;18.02;72.92;99571.23;1665517;84;21154;-73
2022/07/20 00:32:18;;;;;;;5.47;4.20;;;;;;;18.00;73.20;99568.77;1665414;84;20989;-76
2022/07/20 00:34:44;;;;;;;5.72;3.85;;;;;;;18.01;73.40;99565.05;1669716;84;20933;-73
2022/07/20 00:37:11;;;;;;;8.28;4.25;;;;;;;18.05;73.46;99565.42;1660736;84;21012;-73
2022/07/20 00:39:38;;;;;;;5.95;4.30;;;;;;;18.08;73.51;99563.64;1656370;84;20905;-75
2022/07/20 00:42:05;;;;;;;6.33;4.00;;;;;;;18.09;73.51;99556.72;1664869;84;21231;-74
2022/07/20 00:44:32;;;;;;;5.37;4.17;;;;;;;18.13;73.63;99556.57;1678392;84;20957;-74
2022/07/20 00:46:58;;;;;;;4.92;4.42;;;;;;;18.16;73.57;99552.11;1667527;82;21005;-76
2022/07/20 00:49:25;;;;;;;5.10;4.10;;;;;;;18.19;73.56;99553.54;1684440;84;21065;-76
2022/07/20 00:51:51;;;;;;;8.58;4.12;;;;;;;18.20;73.51;99547.09;1664117;84;21035;-74
2022/07/20 00:54:18;;;;;;;6.47;3.47;;;;;;;18.23;73.45;99549.36;1669638;84;21111;-76
2022/07/20 00:56:45;;;;;;;5.00;3.70;;;;;;;18.24;73.37;99551.84;1665640;84;20985;-73
2022/07/20 00:59:12;;;;;;;5.17;3.98;;;;;;;18.25;73.22;99553.48;1665356;84;20992;-76
2022/07/20 01:01:39;;;;;;;4.45;4.00;;;;;;;18.24;73.14;99543.77;1681420;83;20961;-74
2022/07/20 01:04:06;;;;;;;7.42;3.95;;;;;;;18.24;73.07;99546.98;1697435;83;20910;-76
2022/07/20 01:06:33;;;;;;;6.05;3.87;;;;;;;18.26;73.03;99550.27;1696475;83;21163;-73
2022/07/20 01:08:59;;;;;;;5.53;3.70;;;;;;;18.26;73.10;99549.75;1696323;83;20918;-74
2022/07/20 01:11:26;;;;;;;4.35;3.70;;;;;;;18.27;73.01;99551.93;1702820;83;20866;-75
2022/07/20 01:14:02;;;;;;;6.50;4.17;;;;;;;18.28;73.00;99553.05;1705171;82;21010;-76
2022/07/20 01:16:29;;;;;;;5.08;3.92;;;;;;;18.30;72.95;99546.12;1699950;83;21494;-74
2022/07/20 01:18:55;;;;;;;5.28;3.85;;;;;;;18.31;72.84;99545.05;1698416;83;21499;-74
2022/07/20 01:21:22;;;;;;;5.80;3.90;;;;;;;18.31;72.83;99544.54;1699625;83;21504;-75
2022/07/20 01:23:48;;;;;;;4.28;3.42;;;;;;;18.33;72.77;99548.34;1697765;83;21413;-74
2022/07/20 01:26:19;;;;;;;7.15;3.70;;;;;;;18.32;72.63;99544.02;1699227;83;20934;-74
2022/07/20 01:28:45;;;;;;;6.47;4.30;;;;;;;18.29;72.64;99539.90;1697050;83;21493;-76
2022/07/20 01:31:12;;;;;;;4.50;4.10;;;;;;;18.28;72.54;99543.63;1696256;83;21886;-76
2022/07/20 01:33:39;;;;;;;8.45;4.15;;;;;;;18.25;72.47;99543.25;1697240;83;21452;-74
2022/07/20 01:36:06;;;;;;;6.92;4.17;;;;;;;18.21;72.47;99541.51;1710529;83;20895;-76
2022/07/20 01:38:33;;;;;;;4.55;3.50;;;;;;;18.18;72.56;99541.94;1696169;83;20942;-75
2022/07/20 01:40:59;;;;;;;5.72;3.40;;;;;;;18.15;72.66;99538.84;1696403;83;20961;-74
2022/07/20 01:43:26;;;;;;;5.20;4.28;;;;;;;18.15;72.71;99539.67;1695568;83;21081;-76
2022/07/20 01:45:52;;;;;;;4.00;3.52;;;;;;;18.16;72.73;99542.69;1701275;83;20938;-76
2022/07/20 01:48:19;;;;;;;5.42;3.60;;;;;;;18.15;72.75;99542.37;1698886;83;21050;-75
2022/07/20 01:50:46;;;;;;;5.70;3.58;;;;;;;18.16;72.79;99534.61;1696624;83;20882;-76
2022/07/20 01:53:13;;;;;;;5.85;3.25;;;;;;;18.14;72.77;99534.52;1696471;83;20973;-75
2022/07/20 01:55:39;;;;;;;4.37;3.52;;;;;;;18.10;72.75;99528.73;1696303;83;21118;-74
2022/07/20 01:58:06;;;;;;;4.35;3.30;;;;;;;18.07;72.82;99528.37;1696364;83;21038;-74
2022/07/20 02:00:32;;;;;;;4.10;3.52;;;;;;;18.06;72.84;99524.02;1696449;83;20938;-74
2022/07/20 02:02:59;;;;;;;5.40;3.92;;;;;;;18.03;72.78;99529.31;1665104;82;20961;-74
2022/07/20 02:05:26;;;;;;;3.67;3.37;;;;;;;17.97;72.77;99526.13;1665526;84;21008;-75
2022/07/20 02:07:54;;;;;;;4.58;3.58;;;;;;;17.93;72.85;99520.06;1676403;84;21196;-75
2022/07/20 02:10:21;;;;;;;5.17;4.17;;;;;;;17.86;72.98;99519.56;1665320;84;21027;-74
2022/07/20 02:12:48;;;;;;;5.20;3.95;;;;;;;17.83;73.10;99523.23;1663448;84;21647;-75
2022/07/20 02:16:14;;;;;;;4.42;3.50;;;;;;;17.80;73.19;99519.62;1665398;84;21479;-74
2022/07/20 02:17:44;;;;;;;3.67;3.35;;;;;;;17.79;73.33;99527.38;1667419;84;20993;-73
2022/07/20 02:20:11;;;;;;;3.83;3.10;;;;;;;17.79;73.40;99521.48;1665396;84;21270;-74
2022/07/20 02:22:39;;;;;;;6.20;3.75;;;;;;;17.80;73.44;99519.62;1663723;84;21477;-74
2022/07/20 02:25:06;;;;;;;5.40;3.92;;;;;;;17.82;73.51;99525.09;1665226;84;20985;-74
2022/07/20 02:27:34;;;;;;;4.78;3.67;;;;;;;17.86;73.53;99524.95;1665366;84;21531;-74
2022/07/20 02:30:00;;;;;;;3.62;3.30;;;;;;;17.92;73.50;99517.88;1665223;84;21060;-75
2022/07/20 02:32:27;;;;;;;3.87;3.00;;;;;;;17.98;73.40;99517.54;1668931;84;21206;-74
2022/07/20 02:34:53;;;;;;;3.37;3.08;;;;;;;18.02;73.28;99514.19;1665360;84;21078;-74
2022/07/20 02:37:20;;;;;;;6.05;3.65;;;;;;;18.09;73.08;99516.85;1665380;84;21036;-74
2022/07/20 02:39:47;;;;;;;4.08;3.47;;;;;;;18.13;72.87;99518.05;1665262;84;20945;-74
2022/07/20 02:42:13;;;;;;;6.75;3.37;;;;;;;18.15;72.70;99512.75;1664907;84;21123;-74
2022/07/20 02:44:40;;;;;;;4.42;3.40;;;;;;;18.17;72.57;99511.20;1673082;84;21539;-74
2022/07/20 02:47:08;;;;;;;7.12;3.67;;;;;;;18.16;72.42;99514.41;1664889;84;20947;-74
2022/07/20 02:49:35;;;;;;;4.90;3.45;;;;;;;18.14;72.36;99523.23;1665369;84;21036;-74
2022/07/20 02:52:01;;;;;;;5.55;3.37;;;;;;;18.16;72.31;99516.28;1666016;84;20944;-73
2022/07/20 02:54:28;;;;;;;4.05;3.52;;;;;;;18.20;72.20;99523.69;1666694;84;20894;-74
2022/07/20 02:56:54;;;;;;;5.12;3.40;;;;;;;18.28;71.95;99523.43;1665339;84;21205;-74
2022/07/20 02:59:20;;;;;;;6.30;2.87;;;;;;;18.35;71.62;99521.50;1665223;84;21036;-74
2022/07/20 03:01:47;;;;;;;3.47;3.10;;;;;;;18.43;71.24;99524.47;1665249;83;20889;-74
2022/07/20 03:04:13;;;;;;;4.78;2.75;;;;;;;18.46;70.94;99526.19;1663816;84;20969;-76
2022/07/20 03:06:40;;;;;;;5.65;3.47;;;;;;;18.54;70.51;99525.66;1656299;84;20928;-76
2022/07/20 03:09:06;;;;;;;3.20;2.90;;;;;;;18.61;70.22;99525.07;1672069;84;21106;-74
2022/07/20 03:11:35;;;;;;;3.92;3.33;;;;;;;18.68;69.87;99523.13;1665257;84;20953;-77
2022/07/20 03:14:01;;;;;;;4.12;3.12;;;;;;;18.75;69.48;99522.02;1671106;84;20989;-75
2022/07/20 03:16:28;;;;;;;6.30;3.22;;;;;;;18.83;69.11;99522.26;1669796;84;20969;-77
2022/07/20 03:18:55;;;;;;;4.58;2.87;;;;;;;18.87;68.95;99523.48;1664147;84;20980;-76
2022/07/20 03:21:22;;;;;;;5.10;2.75;;;;;;;18.91;68.73;99529.55;1665396;84;21224;-75
2022/07/20 03:23:49;;;;;;;3.72;3.40;;;;;;;18.96;68.58;99532.39;1663956;84;21432;-76
2022/07/20 03:26:18;;;;;;;3.45;3.15;;;;;;;19.01;68.33;99534.41;1672327;84;20945;-76
2022/07/20 03:28:45;;;;;;;7.72;3.30;;;;;;;19.04;68.08;99532.62;1663605;84;21061;-77
2022/07/20 03:31:12;;;;;;;6.75;3.75;;;;;;;19.07;67.98;99532.18;1675845;84;21570;-76
2022/07/20 03:33:39;;;;;;;3.55;3.25;;;;;;;19.09;67.88;99533.61;1667296;84;21877;-75
2022/07/20 03:36:08;;;;;;;6.37;3.80;;;;;;;19.12;67.76;99530.98;1665166;84;20881;-75
2022/07/20 03:38:35;;;;;;;3.98;3.33;;;;;;;19.20;67.75;99530.69;1665131;84;20982;-76
2022/07/20 03:41:02;;;;;;;5.08;3.35;;;;;;;19.35;67.54;99528.44;1664171;84;21012;-75
2022/07/20 03:43:28;;;;;;;4.30;3.52;;;;;;;19.52;67.03;99526.83;1675072;84;20901;-76
2022/07/20 03:45:55;;;;;;;7.20;3.50;;;;;;;19.65;66.45;99528.00;1665237;84;21206;-76
2022/07/20 03:48:23;;;;;;;6.20;2.95;;;;;;;19.71;66.03;99525.72;1675835;84;21605;-76
2022/07/20 03:50:49;;;;;;;5.47;3.40;;;;;;;19.75;65.76;99522.58;1664108;84;21672;-77
2022/07/20 03:53:15;;;;;;;4.17;3.22;;;;;;;19.80;65.54;99524.06;1666281;84;21035;-77
2022/07/20 03:55:42;;;;;;;4.05;3.20;;;;;;;19.87;65.41;99516.69;1665369;84;21028;-76
2022/07/20 03:58:09;;;;;;;3.15;2.85;;;;;;;19.95;65.17;99523.11;1665255;84;21148;-75
2022/07/20 04:00:35;;;;;;;3.87;3.20;;;;;;;20.14;64.84;99528.24;1664600;84;21016;-76
2022/07/20 04:03:02;;;;;;;6.05;3.00;;;;;;;20.43;64.02;99521.17;1668249;83;20957;-76
2022/07/20 04:05:29;;;;;;;4.78;3.10;;;;;;;20.64;63.09;99521.13;1665270;84;20870;-76
2022/07/20 04:07:55;;;;;;;5.50;3.60;;;;;;;20.79;62.59;99516.91;1670394;84;20898;-76
2022/07/20 04:10:22;;;;;;;4.17;3.17;;;;;;;21.01;61.88;99511.73;1687419;84;21134;-76
2022/07/20 04:12:48;;;;;;;8.35;3.40;;;;;;;21.32;61.08;99510.02;1665946;84;21551;-76
2022/07/20 04:15:15;;;;;;;6.42;3.52;;;;;;;21.69;60.13;99509.11;1665263;84;21001;-76
2022/07/20 04:17:41;;;;;;;5.10;3.27;;;;;;;22.08;58.92;99503.39;1670146;84;20976;-76
2022/07/20 04:20:10;;;;;;;3.40;3.05;;;;;;;22.47;57.58;99494.84;1665278;84;21049;-76
2022/07/20 04:22:37;;;;;;;4.25;3.40;;;;;;;22.83;56.63;99499.77;1671301;84;21889;-77
2022/07/20 04:25:04;;;;;;;7.45;3.58;;;;;;;23.15;55.77;99504.02;1665065;84;21052;-76
2022/07/20 04:27:31;;;;;;;6.30;3.45;;;;;;;23.34;54.83;99502.09;1665263;84;21439;-76
2022/07/20 04:29:59;;;;;;;4.05;3.20;;;;;;;23.66;53.12;99492.73;1664556;84;21020;-76
2022/07/20 04:32:25;;;;;;;6.12;3.60;;;;;;;23.66;53.12;99492.73;1661856;84;21053;-76
2022/07/20 04:34:52;;;;;;;3.70;3.33;;;;;;;23.89;52.73;99492.97;1665340;84;21060;-77
2022/07/20 04:37:19;;;;;;;5.40;3.02;;;;;;;24.11;52.16;99491.59;1667932;84;21443;-76
2022/07/20 04:39:45;;;;;;;4.55;3.85;;;;;;;24.38;51.32;99489.64;1665380;84;20949;-76
2022/07/20 04:42:12;;;;;;;5.17;4.05;;;;;;;24.66;50.70;99489.34;1667870;84;21081;-77
2022/07/20 04:44:40;;;;;;;6.72;3.45;;;;;;;24.95;50.03;99485.75;1671657;84;20889;-76
2022/07/20 04:47:06;;;;;;;5.17;3.77;;;;;;;25.24;49.08;99484.25;1675907;84;21261;-76
2022/07/20 04:49:33;;;;;;;5.17;3.30;;;;;;;25.51;48.47;99479.50;1665400;84;20945;-77
2022/07/20 04:52:03;;;;;;;3.40;3.10;;;;;;;25.85;47.79;99477.14;1638311;84;21650;-76
2022/07/20 04:54:30;;;;;;;4.78;3.67;;;;;;;26.13;46.90;99465.77;1631411;86;21034;-77
2022/07/20 04:56:57;;;;;;;4.85;3.20;;;;;;;26.34;46.47;99471.50;1621543;87;21014;-77
2022/07/20 04:59:24;;;;;;;5.37;3.70;;;;;;;26.65;45.82;99458.64;1660642;85;21146;-76
2022/07/20 05:01:51;;;;;;;7.28;3.40;;;;;;;27.02;44.83;99457.50;1659710;85;20980;-76
2022/07/20 05:04:17;;;;;;;8.03;4.28;;;;;;;27.37;44.13;99462.84;1665587;85;20914;-76
2022/07/20 05:06:44;;;;;;;6.30;3.77;;;;;;;27.69;43.43;99463.23;1660648;85;20937;-76
2022/07/20 05:09:11;;;;;;;6.40;3.90;;;;;;;28.00;42.61;99462.52;1660538;85;20946;-74
2022/07/20 05:11:38;;;;;;;7.78;4.33;;;;;;;28.28;42.15;99461.78;1652971;85;21101;-76
2022/07/20 05:14:05;;;;;;;5.50;4.08;;;;;;;28.71;41.36;99447.72;1665344;85;21006;-73
2022/07/20 05:16:34;;;;;;;6.80;3.22;;;;;;;29.13;40.01;99445.06;1656489;85;21508;-70
2022/07/20 05:19:00;;;;;;;4.70;3.87;;;;;;;29.51;39.26;99442.44;1668821;85;21026;-71
2022/07/20 05:21:28;;;;;;;5.83;4.72;;;;;;;29.90;38.37;99443.79;1669018;85;21056;-72
2022/07/20 05:23:55;;;;;;;5.87;3.55;;;;;;;30.28;37.58;99445.12;1658451;85;21279;-71
2022/07/20 05:26:22;;;;;;;4.03;3.58;;;;;;;30.72;37.10;99446.84;1666527;85;20961;-78
2022/07/20 05:28:48;;;;;;;4.58;3.58;;;;;;;31.21;36.56;99448.92;1659455;85;21541;-76
2022/07/20 05:31:15;;;;;;;4.72;3.72;;;;;;;31.75;35.48;99447.52;1665562;85;20989;-75
2022/07/20 05:33:42;;;;;;;4.97;3.80;;;;;;;32.14;34.54;99444.15;1671902;85;21028;-74
2022/07/20 05:36:09;;;;;;;8.13;3.58;;;;;;;32.57;33.82;99445.82;1670884;85;21805;-76
2022/07/20 05:38:36;;;;;;;6.85;3.50;;;;;;;33.04;32.91;99442.06;1668432;85;20874;-80
2022/07/20 05:41:03;;;;;;;4.90;3.22;;;;;;;33.41;32.47;99438.25;1683597;85;20996;-78
2022/07/20 05:43:32;;;;;;;3.55;3.25;;;;;;;33.78;31.66;99429.98;1677582;85;21019;-72
2022/07/20 05:45:58;;;;;;;3.75;3.35;;;;;;;34.12;31.17;99428.63;1664282;84;21646;-71
2022/07/20 05:48:26;;;;;;;4.28;3.10;;;;;;;34.60;30.84;99426.99;1668370;85;21773;-72
2022/07/20 05:50:52;;;;;;;4.37;3.35;;;;;;;35.26;29.93;99420.48;1669231;85;21021;-71
2022/07/20 05:53:19;;;;;;;7.05;4.72;;;;;;;35.91;29.03;99424.03;1685052;85;21069;-70
2022/07/20 05:55:46;;;;;;;8.55;4.12;;;;;;;36.40;28.30;99417.55;1657069;85;21039;-75
2022/07/20 05:58:12;;;;;;;6.30;3.52;;;;;;;36.19;27.92;99416.01;1683634;85;21105;-72
2022/07/20 06:00:40;;;;;;;7.53;3.77;;;;;;;36.44;27.67;99418.51;1686063;85;21153;-77
2022/07/20 06:03:07;;;;;;;4.92;3.45;;;;;;;36.74;27.15;99413.61;1677045;83;21010;-74
2022/07/20 06:05:34;;;;;;;4.55;3.35;;;;;;;37.19;26.92;99412.73;1652472;85;21026;-75
2022/07/20 06:08:02;;;;;;;6.62;3.42;;;;;;;37.79;26.10;99405.72;1710658;83;21076;-76
2022/07/20 06:10:32;;;;;;;6.30;3.90;;;;;;;38.29;25.16;99403.81;1718169;83;21018;-74
2022/07/20 06:12:59;;;;;;;7.60;3.85;;;;;;;38.52;24.71;99404.86;1722091;82;21124;-76
2022/07/20 06:15:26;;;;;;;5.25;3.50;;;;;;;38.76;24.50;99395.58;1699070;82;21165;-76
2022/07/20 06:17:54;;;;;;;6.28;3.92;;;;;;;38.26;25.16;99398.38;1697849;83;20993;-77
2022/07/20 06:20:23;;;;;;;5.60;3.40;;;;;;;38.31;25.00;99400.12;1702243;83;21108;-73
2022/07/20 06:22:49;;;;;;;9.55;3.33;;;;;;;38.66;24.25;99396.91;1715017;83;21049;-75
2022/07/20 06:25:16;;;;;;;5.47;3.35;;;;;;;38.71;23.57;99398.02;1708338;83;21755;-78
2022/07/20 06:27:47;;;;;;;3.83;3.20;;;;;;;38.76;23.61;99398.36;1697502;83;20922;-75
2022/07/20 06:30:13;;;;;;;4.10;3.42;;;;;;;38.97;23.24;99391.13;1691835;83;21075;-75
2022/07/20 06:32:40;;;;;;;5.78;3.12;;;;;;;39.45;22.95;99391.50;1698451;83;20987;-78
2022/07/20 06:35:07;;;;;;;4.33;3.25;;;;;;;39.85;22.45;99393.99;1716190;82;20855;-74
2022/07/20 06:37:34;;;;;;;6.90;3.00;;;;;;;40.15;21.93;99389.25;1706530;83;21126;-77
2022/07/20 06:40:01;;;;;;;7.50;3.40;;;;;;;40.62;21.93;99384.97;1712801;83;20914;-74
2022/07/20 06:42:27;;;;;;;8.60;3.77;;;;;;;41.18;21.11;99375.95;1700709;83;21445;-74
2022/07/20 06:44:53;;;;;;;5.53;2.58;;;;;;;41.69;20.62;99372.89;1720206;83;21548;-74
2022/07/20 06:47:22;;;;;;;4.42;3.25;;;;;;;42.11;20.11;99376.03;1709251;82;21643;-77
2022/07/20 06:49:49;;;;;;;7.33;2.83;;;;;;;42.49;20.01;99367.27;1698223;83;22078;-81
2022/07/20 06:52:15;;;;;;;6.75;3.30;;;;;;;42.97;19.74;99363.91;1706628;83;20918;-72
2022/07/20 06:54:42;;;;;;;4.75;3.35;;;;;;;43.40;19.28;99360.23;1709418;83;20985;-74
2022/07/20 06:57:10;;;;;;;5.47;3.00;;;;;;;43.86;18.34;99353.45;1713458;83;20902;-78
2022/07/20 06:59:37;;;;;;;5.42;3.25;;;;;;;43.96;18.13;99348.47;1709782;83;20900;-78
2022/07/20 07:02:05;;;;;;;4.35;3.27;;;;;;;43.99;18.33;99352.48;1707670;83;21244;-78
2022/07/20 07:04:32;;;;;;;5.45;3.70;;;;;;;44.29;18.13;99340.38;1684249;83;20977;-77
2022/07/20 07:06:58;;;;;;;5.25;3.25;;;;;;;44.50;17.75;99343.23;1684693;84;21028;-77
2022/07/20 07:09:26;;;;;;;4.50;2.75;;;;;;;44.51;17.35;99335.01;1670590;84;20948;-74
2022/07/20 07:11:53;;;;;;;4.45;2.87;;;;;;;44.47;17.58;99336.19;1679068;84;21526;-74
2022/07/20 07:14:21;;;;;;;4.35;2.92;;;;;;;44.65;17.84;99329.41;1645647;85;20953;-74
2022/07/20 07:16:48;;;;;;;5.12;3.08;;;;;;;45.02;17.48;99323.98;1622400;87;21060;-76
2022/07/20 07:19:16;;;;;;;8.78;3.47;;;;;;;45.37;17.31;99326.71;1679501;84;20943;-77
2022/07/20 07:21:44;;;;;;;3.52;2.90;;;;;;;45.74;16.64;99310.14;1693339;84;20953;-77
2022/07/20 07:24:10;;;;;;;3.50;2.75;;;;;;;45.95;16.63;99305.00;1681507;84;20902;-77
2022/07/20 07:26:36;;;;;;;3.87;2.80;;;;;;;46.35;16.60;99309.17;1666571;84;21217;-75
2022/07/20 07:29:03;;;;;;;8.00;3.90;;;;;;;46.82;15.91;99312.64;1665154;84;21048;-71
2022/07/20 07:31:30;;;;;;;6.97;3.05;;;;;;;46.93;15.78;99303.48;1676350;84;21000;-76
2022/07/20 07:33:56;;;;;;;2.62;2.52;;;;;;;46.91;15.55;99303.08;1674483;84;21563;-76
2022/07/20 07:36:22;;;;;;;4.78;3.30;;;;;;;47.03;15.44;99303.98;1662166;84;21708;-77
2022/07/20 07:38:49;;;;;;;6.75;2.98;;;;;;;47.10;15.49;99298.89;1667853;84;21137;-76
2022/07/20 07:41:17;;;;;;;5.17;3.05;;;;;;;47.12;15.58;99288.00;1679835;84;21425;-78
2022/07/20 07:43:45;;;;;;;3.45;3.00;;;;;;;47.31;15.11;99293.63;1669322;84;21503;-77
2022/07/20 07:46:11;;;;;;;6.70;3.52;;;;;;;47.56;15.21;99292.75;1670681;84;21006;-79
2022/07/20 07:48:39;;;;;;;6.05;3.55;;;;;;;47.96;15.07;99286.16;1672995;84;21422;-76
2022/07/20 07:51:06;;;;;;;4.58;3.27;;;;;;;48.19;15.06;99290.45;1663572;84;21725;-79
2022/07/20 07:53:33;;;;;;;4.15;3.30;;;;;;;48.32;14.52;99289.88;1675163;84;21041;-70
2022/07/20 07:56:00;;;;;;;5.85;3.02;;;;;;;48.18;14.83;99295.13;1672501;84;20945;-70
2022/07/20 07:58:26;;;;;;;5.78;3.87;;;;;;;48.28;14.71;99293.54;1671201;84;20975;-76
2022/07/20 08:00:53;;;;;;;5.05;3.00;;;;;;;48.46;14.54;99296.67;1678594;84;21079;-77
2022/07/20 08:03:20;;;;;;;4.83;3.20;;;;;;;48.57;14.25;99295.30;1693529;82;21842;-77
2022/07/20 08:05:46;;;;;;;6.78;3.52;;;;;;;48.62;14.00;99284.93;1691971;84;20918;-76
2022/07/20 08:08:14;;;;;;;7.03;3.67;;;;;;;48.65;14.12;99298.19;1692219;84;20933;-77
2022/07/20 08:10:42;;;;;;;3.72;3.35;;;;;;;48.90;14.20;99300.56;1692103;84;21101;-76
2022/07/20 08:13:11;;;;;;;6.00;3.22;;;;;;;49.06;13.97;99307.72;1692313;84;20886;-77
2022/07/20 08:15:38;;;;;;;6.28;2.75;;;;;;;49.19;13.62;99307.27;1692213;84;21556;-77
2022/07/20 08:18:05;;;;;;;4.05;2.95;;;;;;;49.13;13.86;99299.71;1687035;84;21527;-77
2022/07/20 08:20:31;;;;;;;3.35;3.05;;;;;;;49.13;13.54;99303.34;1692281;84;20901;-77
2022/07/20 08:22:59;;;;;;;3.27;2.90;;;;;;;48.79;13.67;99289.44;1692338;84;20906;-78
2022/07/20 08:25:26;;;;;;;7.05;2.90;;;;;;;48.32;13.94;99291.28;1668492;84;21574;-77
2022/07/20 08:27:53;;;;;;;4.00;3.00;;;;;;;48.19;13.84;99281.98;1665475;84;21357;-76
2022/07/20 08:30:19;;;;;;;6.33;3.12;;;;;;;48.19;13.84;99281.98;1681284;84;20890;-76
2022/07/20 08:32:46;;;;;;;5.65;2.80;;;;;;;48.29;14.50;99288.70;1665591;84;20898;-77
2022/07/20 08:35:13;;;;;;;4.03;3.10;;;;;;;48.50;14.47;99279.85;1665286;84;20905;-76
2022/07/20 08:37:39;;;;;;;4.17;3.30;;;;;;;48.67;14.07;99280.20;1656507;84;20893;-76
2022/07/20 08:40:08;;;;;;;6.85;3.22;;;;;;;48.75;14.11;99280.86;1674999;84;21776;-79
2022/07/20 08:42:34;;;;;;;4.87;2.87;;;;;;;48.79;13.96;99281.58;1666511;84;21075;-76
2022/07/20 08:45:02;;;;;;;4.70;3.45;;;;;;;48.52;14.35;99273.80;1665518;84;20874;-76
2022/07/20 08:47:30;;;;;;;6.40;3.35;;;;;;;48.52;14.35;99273.80;1672900;84;20965;-76
2022/07/20 08:49:58;;;;;;;3.77;3.12;;;;;;;48.67;14.05;99279.40;1679040;84;20941;-76
2022/07/20 08:52:24;;;;;;;5.90;3.30;;;;;;;48.88;13.98;99269.16;1665450;84;21514;-77
2022/07/20 08:54:51;;;;;;;4.58;3.37;;;;;;;49.12;13.80;99268.48;1665445;84;20854;-76
2022/07/20 08:57:18;;;;;;;10.65;4.62;;;;;;;49.38;13.53;99266.16;1665385;84;21455;-75
2022/07/20 08:59:45;;;;;;;3.87;3.40;;;;;;;49.61;13.33;99257.59;1665641;84;21503;-75
2022/07/20 09:02:14;;;;;;;6.87;3.77;;;;;;;49.55;12.97;99265.58;1682664;84;20945;-75
2022/07/20 09:04:58;;;;;;;5.08;2.92;;;;;;;49.39;13.00;99256.43;1676452;82;21543;-76
2022/07/20 09:07:43;;;;;;;3.50;2.62;;;;;;;49.13;13.13;99261.59;1658464;84;21641;-76
2022/07/20 09:10:21;;;;;;;3.08;2.80;;;;;;;49.06;12.74;99252.66;1665661;84;28049;-76
2022/07/20 09:13:00;;;;;;;3.65;2.77;;;;;;;48.67;12.73;99254.00;1665177;84;20954;-77
2022/07/20 09:15:36;;;;;;;3.27;2.40;;;;;;;48.02;13.27;99247.00;1656904;84;21487;-76
2022/07/20 09:18:24;;;;;;;2.62;2.42;;;;;;;47.88;13.47;99250.84;1667713;84;21309;-76
2022/07/20 09:20:53;;;;;;;4.37;2.40;;;;;;;47.72;13.06;99243.59;1665322;84;21439;-77
2022/07/20 09:23:27;;;;;;;4.62;2.50;;;;;;;47.72;13.06;99243.59;1665367;84;20941;-78
2022/07/20 09:26:03;;;;;;;3.90;2.47;;;;;;;47.07;13.69;99246.21;1665241;84;37772;-77
2022/07/20 09:28:43;;;;;;;3.80;2.72;;;;;;;47.07;13.69;99246.21;1665427;84;20858;-76
2022/07/20 09:31:19;;;;;;;3.50;2.50;;;;;;;46.37;14.17;99242.89;1665520;84;21223;-75
2022/07/20 09:33:54;;;;;;;2.30;2.10;;;;;;;45.30;15.02;99244.73;1670083;84;20938;-76
2022/07/20 09:36:24;;;;;;;3.45;2.42;;;;;;;44.07;15.77;99254.03;1694762;84;20988;-76
2022/07/20 09:38:51;;;;;;;2.47;2.27;;;;;;;42.42;17.05;99246.39;1671205;84;21012;-77
2022/07/20 09:41:27;;;;;;;2.45;2.25;;;;;;;40.89;18.53;99247.00;1665486;84;20973;-77
2022/07/20 09:43:58;;;;;;;2.92;2.37;;;;;;;39.87;19.67;99251.61;1677528;84;21959;-74
2022/07/20 09:46:28;;;;;;;5.62;2.00;;;;;;;38.97;20.84;99252.09;1682017;84;21664;-76
2022/07/20 09:48:57;;;;;;;2.87;2.25;;;;;;;38.35;21.84;99255.19;1667545;84;20901;-76
2022/07/20 09:51:33;;;;;;;2.92;2.60;;;;;;;37.68;22.51;99248.61;1665436;84;21499;-76
2022/07/20 09:54:04;;;;;;;;;;;;;;;37.18;23.53;99248.31;1667911;84;21060;-77
2022/07/20 09:56:33;;;;;;;2.67;2.47;;;;;;;36.77;24.20;99248.04;1656529;84;21765;-76
2022/07/20 09:59:04;;;;;;;4.17;2.70;;;;;;;36.40;24.75;99252.76;1657343;84;21013;-76
2022/07/20 10:01:35;;;;;;;3.47;2.80;;;;;;;36.13;25.29;99247.91;1683126;84;21498;-76
2022/07/20 10:04:04;;;;;;;6.97;2.72;;;;;;;35.86;25.06;99254.04;1664700;84;20985;-75
2022/07/20 10:06:32;;;;;;;6.15;2.30;;;;;;;35.59;25.23;99256.05;1662005;84;20866;-74
2022/07/20 10:08:59;;;;;;;2.45;2.25;;;;;;;35.29;25.49;99250.59;1677471;84;21572;-76
2022/07/20 10:11:27;;;;;;;2.75;2.47;;;;;;;35.09;25.68;99248.64;1667511;84;21047;-77
2022/07/20 10:13:56;;;;;;;2.52;2.27;;;;;;;34.96;25.71;99256.59;1667625;84;21002;-77
2022/07/20 10:16:53;;;;;;;2.40;2.20;;;;;;;34.83;26.49;99253.52;1669008;84;21475;-76
2022/07/20 10:19:36;;;;;;;3.72;2.35;;;;;;;34.77;26.35;99259.55;1647757;86;21435;-76
2022/07/20 10:22:02;;;;;;;3.80;2.10;;;;;;;34.57;26.92;99259.77;1639196;84;21252;-77
2022/07/20 10:24:31;;;;;;;9.03;3.08;;;;;;;34.44;27.11;99248.35;1676006;84;20937;-76
2022/07/20 10:27:15;;;;;;;4.70;2.52;;;;;;;34.21;27.48;99246.41;1667452;84;20945;-76
2022/07/20 10:29:48;;;;;;;3.15;2.90;;;;;;;34.15;28.09;99235.33;1667423;84;21016;-77
2022/07/20 10:32:23;;;;;;;3.05;2.77;;;;;;;34.25;28.69;99238.28;1667548;84;21059;-77
2022/07/20 10:34:58;;;;;;;3.95;2.25;;;;;;;34.32;28.61;99230.28;1684666;84;20862;-78
2022/07/20 10:37:42;;;;;;;3.25;2.27;;;;;;;34.35;28.35;99229.63;1694308;84;20977;-77
2022/07/20 10:40:20;;;;;;;2.80;2.42;;;;;;;34.32;28.53;99232.48;1675252;84;20901;-77
2022/07/20 10:43:07;;;;;;;2.92;2.62;;;;;;;34.11;28.42;99226.08;1694311;84;21007;-75
2022/07/20 10:45:35;;;;;;;3.08;2.87;;;;;;;33.97;28.78;99222.11;1694687;84;20989;-76
2022/07/20 10:48:17;;;;;;;7.90;2.55;;;;;;;33.84;29.24;99232.00;1687060;84;21092;-76
2022/07/20 10:50:55;;;;;;;3.62;2.72;;;;;;;33.81;29.63;99230.70;1686288;84;21047;-76
2022/07/20 10:53:28;;;;;;;3.40;2.77;;;;;;;33.68;29.36;99239.17;1670926;84;21416;-76
2022/07/20 10:55:58;;;;;;;6.90;2.80;;;;;;;33.51;29.48;99224.80;1694346;84;20938;-77
2022/07/20 10:58:27;;;;;;;5.83;2.92;;;;;;;33.33;29.23;99217.69;1694358;84;20934;-77
2022/07/20 11:01:06;;;;;;;5.22;2.75;;;;;;;33.14;29.58;99211.13;1694316;84;21141;-77
2022/07/20 11:03:46;;;;;;;3.90;2.55;;;;;;;32.96;29.47;99215.80;1694069;84;21020;-78
2022/07/20 11:06:18;;;;;;;4.60;2.62;;;;;;;32.82;29.72;99219.30;1723792;82;21036;-75
2022/07/20 11:09:00;;;;;;;2.80;2.42;;;;;;;32.79;30.34;99210.85;1707983;82;20915;-76
2022/07/20 11:11:34;;;;;;;5.45;3.08;;;;;;;32.76;30.93;99212.31;1723977;82;21124;-77
2022/07/20 11:14:04;;;;;;;2.80;2.20;;;;;;;32.71;31.04;99215.22;1724076;82;21315;-77
2022/07/20 11:16:32;;;;;;;14.18;2.75;;;;;;;32.64;31.12;99214.86;1723939;82;20928;-76
2022/07/20 11:19:00;;;;;;;4.62;2.77;;;;;;;32.61;31.16;99213.34;1724266;82;20943;-76
2022/07/20 11:21:34;;;;;;;2.60;2.40;;;;;;;32.55;31.02;99215.43;1709100;82;21022;-76
2022/07/20 11:24:01;;;;;;;3.05;2.75;;;;;;;32.47;31.36;99207.92;1716045;82;20965;-75
2022/07/20 11:26:28;;;;;;;4.85;2.70;;;;;;;32.40;31.55;99213.09;1696335;83;21150;-77
2022/07/20 11:28:57;;;;;;;2.95;2.40;;;;;;;32.34;31.60;99207.48;1696192;83;20946;-76
2022/07/20 11:31:26;;;;;;;2.90;2.70;;;;;;;32.26;31.31;99215.96;1696265;83;21062;-77
2022/07/20 11:33:54;;;;;;;5.05;2.50;;;;;;;32.16;30.57;99212.12;1696149;83;21032;-77
2022/07/20 11:36:27;;;;;;;6.00;2.47;;;;;;;32.05;30.47;99219.03;1696315;83;20938;-76
2022/07/20 11:38:59;;;;;;;4.17;2.70;;;;;;;31.99;30.87;99213.41;1696288;83;22228;-76
2022/07/20 11:41:33;;;;;;;2.37;2.17;;;;;;;31.95;30.43;99211.59;1685905;83;20985;-76